Latest Weather Observations for Edinburgh

IDS60901

Issued at 4:21 pm CDT Friday 12 February 2016 (issued every 10 minutes, with the page automatically refreshed every 10 minutes)

About weather observations | Map of Adelaide area stations | Latest observations for Adelaide area | Other Formats
Station Details ID: 023083 Name: EDINBURGH RAAF Lat: -34.71 Lon: 138.62 Height: 16.54 m
Data from the previous 72 hours. | See also: Recent months at Edinburgh
Date/Time
CDT
Tmp

°C
App
Tmp
°C
Dew
Point
°C
Rel
Hum
%
Delta-T

°C
Wind Press
QNH
hPa
Press
MSL
hPa
Rain
since
9 am
mm
Dir
 
Spd
km/h
Gust
km/h
Spd
kts
Gust
kts
12/04:00pm 32.1 27.3 4.8 18 14.3 SW 19 24 10 13 1011.6 1011.5 0.0
12/03:30pm 32.1 27.8 7.7 22 13.4 SW 20 28 11 15 1011.9 1011.8 0.0
12/03:00pm 31.6 26.3 5.2 19 13.9 SW 22 28 12 15 1012.2 1012.1 0.0
12/02:30pm 31.3 27.1 8.3 24 12.7 SW 20 28 11 15 1012.5 1012.4 0.0
12/02:00pm 31.4 27.6 9.0 25 12.5 WSW 19 26 10 14 1012.8 1012.7 0.0
12/01:30pm 30.2 27.0 11.2 31 11.0 WSW 19 24 10 13 1013.1 1013.0 0.0
12/01:00pm 29.5 26.3 12.0 34 10.2 WSW 20 26 11 14 1013.4 1013.3 0.0
12/12:30pm 30.4 28.4 12.8 34 10.4 SW 15 22 8 12 1013.6 1013.5 0.0
12/12:00pm 29.2 27.8 12.2 35 9.9 SSW 11 20 6 11 1014.0 1013.9 0.0
12/11:30am 28.1 26.9 10.3 33 10.0 SSE 7 13 4 7 1014.4 1014.3 0.0
12/11:00am 27.0 26.2 11.1 37 9.0 WNW 6 9 3 5 1014.6 1014.5 0.0
12/10:30am 25.8 25.2 11.6 41 8.1 SSE 6 7 3 4 1014.7 1014.6 0.0
12/10:00am 24.6 24.3 11.5 44 7.4 N 4 7 2 4 1015.0 1014.9 0.0
12/09:30am 22.6 22.0 11.7 50 6.1 WNW 6 9 3 5 1015.3 1015.2 0.0
12/09:00am 21.7 21.6 12.0 54 5.4 SSW 4 7 2 4 1015.4 1015.3 0.0
12/08:30am 19.5 19.2 11.5 60 4.4 NW 4 7 2 4 1015.5 1015.4 0.0
12/08:00am 18.0 18.4 11.3 65 3.6 CALM 0 0 0 0 1015.4 1015.3 0.0
12/07:30am 17.0 17.4 11.1 68 3.2 CALM 0 0 0 0 1015.3 1015.2 0.0
12/07:00am 15.4 14.6 11.0 75 2.3 ENE 6 9 3 5 1015.1 1015.0 0.0
12/06:30am 14.7 13.6 10.5 76 2.2 NE 7 7 4 4 1015.0 1014.9 0.0
12/06:00am 14.5 13.2 10.1 75 2.3 NNE 7 9 4 5 1014.6 1014.5 0.0
12/05:30am 15.0 13.5 10.4 74 2.4 NE 9 11 5 6 1014.4 1014.3 0.0
12/05:00am 15.3 13.8 10.7 74 2.4 NE 9 9 5 5 1014.4 1014.3 0.0
12/04:30am 15.3 14.4 10.7 74 2.4 NE 6 7 3 4 1014.3 1014.2 0.0
12/04:00am 15.2 14.5 10.0 71 2.7 NNW 4 6 2 3 1014.2 1014.1 0.0
12/03:30am 15.2 14.2 10.2 72 2.6 W 6 7 3 4 1014.2 1014.1 0.0
12/03:00am 16.3 15.2 10.6 69 3.0 WSW 7 7 4 4 1014.4 1014.3 0.0
12/02:30am 16.7 17.1 11.2 70 3.0 CALM 0 0 0 0 1014.4 1014.3 0.0
12/02:00am 16.2 15.3 10.5 69 3.0 NNW 6 7 3 4 1014.8 1014.7 0.0
12/01:30am 17.1 17.3 10.5 65 3.5 CALM 0 0 0 0 1015.1 1015.0 0.0
12/01:00am 17.7 17.9 10.6 63 3.8 CALM 0 0 0 0 1015.2 1015.1 0.0
12/12:30am 18.1 18.1 11.2 64 3.7 SSW 2 6 1 3 1015.3 1015.2 0.0
12/12:00am 18.7 17.8 10.5 59 4.4 SSW 6 9 3 5 1015.3 1015.2 0.0
 
Date/Time
CDT
Tmp

°C
App
Tmp
°C
Dew
Point
°C
Rel
Hum
%
Delta-T

°C
Wind Press
QNH
hPa
Press
MSL
hPa
Rain
since
9 am
mm
Dir
 
Spd
km/h
Gust
km/h
Spd
kts
Gust
kts
11/11:30pm 20.1 17.8 10.5 54 5.2 SSE 13 19 7 10 1015.3 1015.2 0.0
11/11:00pm 20.2 18.7 10.6 54 5.2 SSE 9 17 5 9 1015.5 1015.4 0.0
11/10:30pm 20.7 17.7 10.5 52 5.5 SSE 17 22 9 12 1015.7 1015.6 0.0
11/10:00pm 21.5 18.7 10.0 48 6.2 SE 15 20 8 11 1015.5 1015.4 0.0
11/09:30pm 21.9 19.6 10.4 48 6.3 SE 13 17 7 9 1015.1 1015.0 0.0
11/09:00pm 22.6 19.9 10.4 46 6.7 SE 15 24 8 13 1014.6 1014.5 0.0
11/08:30pm 23.8 20.2 9.8 41 7.6 SE 19 26 10 14 1014.3 1014.2 0.0
11/08:00pm 26.4 22.8 8.4 32 9.7 SE 17 24 9 13 1013.9 1013.8 0.0
11/07:30pm 28.4 24.4 8.1 28 11.0 SE 19 26 10 14 1013.6 1013.5 0.0
11/07:00pm 29.7 26.1 8.2 26 11.8 SE 17 26 9 14 1013.1 1013.0 0.0
11/06:30pm 30.3 25.8 8.7 26 12.0 SSE 22 32 12 17 1012.7 1012.6 0.0
11/06:00pm 31.7 26.7 8.0 23 13.1 SSW 24 33 13 18 1012.5 1012.4 0.0
11/05:30pm 32.9 28.4 8.4 22 13.7 SSW 22 35 12 19 1012.3 1012.2 0.0
11/05:00pm 32.3 28.0 7.9 22 13.5 S 20 32 11 17 1012.2 1012.1 0.0
11/04:30pm 33.4 28.4 8.1 21 14.1 SSW 24 44 13 24 1012.3 1012.2 0.0
11/04:00pm 32.9 27.4 9.0 23 13.5 SW 28 39 15 21 1012.4 1012.3 0.0
11/03:30pm 33.9 28.8 10.5 24 13.6 SW 28 37 15 20 1012.8 1012.7 0.0
11/03:00pm 32.4 27.3 9.2 24 13.1 SW 26 35 14 19 1013.0 1012.9 0.0
11/02:30pm 32.7 28.9 12.3 28 12.1 SW 24 35 13 19 1013.1 1013.0 0.0
11/02:00pm 30.9 26.3 9.7 27 12.0 WSW 24 35 13 19 1013.5 1013.4 0.0
11/01:30pm 31.1 27.3 7.5 23 12.9 SW 17 35 9 19 1013.7 1013.6 0.0
11/01:00pm 29.8 25.5 10.9 31 10.8 WSW 24 33 13 18 1014.2 1014.1 0.0
11/12:30pm 28.8 25.4 11.4 34 10.0 WSW 20 28 11 15 1014.5 1014.4 0.0
11/12:00pm 28.7 26.5 9.4 30 10.7 SW 11 19 6 10 1014.7 1014.6 0.0
11/11:30am 28.4 25.4 7.6 27 11.2 S 13 20 7 11 1015.0 1014.9 0.0
11/11:00am 26.7 23.2 7.2 29 10.3 SE 15 22 8 12 1015.4 1015.3 0.0
11/10:30am 25.1 23.2 9.0 36 8.7 SE 9 20 5 11 1015.6 1015.5 0.0
11/10:00am 23.6 22.6 10.3 43 7.3 E 6 11 3 6 1016.0 1015.9 0.0
11/09:30am 22.6 22.1 10.7 47 6.6 N 4 7 2 4 1016.4 1016.3 0.0
11/09:00am 21.2 21.1 10.7 51 5.7 ESE 2 6 1 3 1016.5 1016.4 0.0
11/08:30am 20.1 19.2 10.5 54 5.2 SE 6 9 3 5 1016.3 1016.2 0.0
11/08:00am 19.4 18.4 10.4 56 4.9 E 6 9 3 5 1016.1 1016.0 0.0
11/07:30am 18.4 17.3 10.8 61 4.1 S 7 9 4 5 1015.8 1015.7 0.0
11/07:00am 17.9 16.5 11.0 64 3.7 SSE 9 13 5 7 1015.5 1015.4 0.0
11/06:30am 17.2 16.3 11.5 69 3.1 SSE 7 9 4 5 1015.2 1015.1 0.0
11/06:00am 17.3 16.5 11.6 69 3.1 S 7 9 4 5 1014.8 1014.7 0.0
11/05:30am 16.8 15.9 10.6 67 3.3 SSE 6 9 3 5 1014.6 1014.5 0.0
11/05:00am 16.8 15.5 9.2 61 3.9 ENE 6 7 3 4 1014.4 1014.3 0.0
11/04:30am 16.3 16.2 9.3 63 3.6 CALM 0 0 0 0 1014.2 1014.1 0.0
11/04:00am 16.4 16.2 9.1 62 3.8 CALM 0 0 0 0 1014.1 1014.0 0.0
11/03:30am 16.2 15.6 8.9 62 3.7 WSW 2 6 1 3 1014.1 1014.0 0.0
11/03:00am 17.0 16.6 8.2 56 4.5 CALM 0 7 0 4 1014.0 1013.9 0.0
11/02:30am 19.5 17.9 8.8 50 5.6 SSE 7 11 4 6 1014.0 1013.9 0.0
11/02:00am 19.7 17.6 8.4 48 5.9 SE 9 13 5 7 1014.1 1014.0 0.0
11/01:30am 20.3 18.2 8.3 46 6.2 SSE 9 15 5 8 1014.3 1014.2 0.0
11/01:00am 20.7 17.9 7.0 41 7.0 S 11 17 6 9 1014.4 1014.3 0.0
11/12:30am 20.7 17.3 3.9 33 8.1 S 11 15 6 8 1014.3 1014.2 0.0
11/12:00am 19.4 17.9 6.8 44 6.3 W 4 7 2 4 1014.3 1014.2 0.0
 
Date/Time
CDT
Tmp

°C
App
Tmp
°C
Dew
Point
°C
Rel
Hum
%
Delta-T

°C
Wind Press
QNH
hPa
Press
MSL
hPa
Rain
since
9 am
mm
Dir
 
Spd
km/h
Gust
km/h
Spd
kts
Gust
kts
10/11:30pm 21.3 19.2 5.6 36 7.8 S 6 7 3 4 1014.3 1014.2 0.0
10/11:00pm 22.5 19.1 5.9 34 8.4 SE 13 19 7 10 1014.2 1014.1 0.0
10/10:30pm 21.6 19.3 4.7 33 8.3 SSW 6 11 3 6 1014.3 1014.2 0.0
10/10:00pm 22.1 19.3 3.3 29 9.0 SSW 7 17 4 9 1014.2 1014.1 0.0
10/09:30pm 23.1 19.1 3.1 27 9.6 SSE 13 20 7 11 1013.9 1013.8 0.0
10/09:00pm 23.4 20.1 4.4 29 9.4 SE 11 17 6 9 1013.7 1013.6 0.0
10/08:30pm 24.1 20.8 6.4 32 9.1 SE 13 19 7 10 1013.4 1013.3 0.0
10/08:00pm 25.3 21.1 8.3 34 9.1 SE 20 28 11 15 1013.1 1013.0 0.0
10/07:30pm 27.2 23.2 9.1 32 9.9 ESE 20 32 11 17 1012.6 1012.5 0.0
10/07:00pm 29.6 25.8 9.7 29 11.2 ESE 20 26 11 14 1012.1 1012.0 0.0
10/06:30pm 31.1 27.9 9.9 27 12.0 ESE 17 26 9 14 1011.8 1011.7 0.0
10/06:00pm 32.8 29.8 10.8 26 12.8 WSW 17 24 9 13 1011.5 1011.4 0.0
10/05:30pm 32.5 28.4 11.6 28 12.3 WSW 24 30 13 16 1011.4 1011.3 0.0
10/05:00pm 32.7 28.4 10.7 26 12.7 SW 24 30 13 16 1011.4 1011.3 0.0
10/04:30pm 32.8 27.2 3.7 16 15.1 SW 22 28 12 15 1011.6 1011.5 0.0
10/04:00pm 32.1 26.6 9.0 24 13.0 SW 28 35 15 19 1011.7 1011.6 0.0
10/03:30pm 31.0 26.6 12.8 32 10.8 WSW 28 33 15 18 1011.9 1011.8 0.0
10/03:00pm 31.9 27.4 10.0 26 12.5 WSW 24 30 13 16 1012.1 1012.0 0.0
10/02:30pm 32.8 28.0 8.9 23 13.5 WSW 24 30 13 16 1012.4 1012.3 0.0
10/02:00pm 33.0 28.6 9.1 23 13.5 SW 22 30 12 16 1012.7 1012.6 0.0
10/01:30pm 32.1 27.2 8.4 23 13.2 WSW 24 30 13 16 1013.1 1013.0 0.0
10/01:00pm 32.6 28.3 5.2 18 14.5 SSW 17 26 9 14 1013.4 1013.3 0.0
10/12:30pm 31.7 27.4 5.3 19 13.9 SW 17 20 9 11 1013.8 1013.7 0.0
10/12:00pm 30.6 26.6 6.5 22 12.9 SSW 17 24 9 13 1014.2 1014.1 0.0
10/11:30am 29.1 24.5 8.2 27 11.4 SW 22 32 12 17 1014.7 1014.6 0.0
10/11:00am 28.4 23.5 5.3 23 12.0 SW 20 28 11 15 1014.9 1014.8 0.0
10/10:30am 27.4 23.7 6.2 26 11.1 SW 15 20 8 11 1015.0 1014.9 0.0
10/10:00am 27.1 24.5 4.2 23 11.5 SW 7 13 4 7 1015.0 1014.9 0.0
10/09:30am 25.7 23.3 4.2 25 10.7 SW 6 11 3 6 1015.0 1014.9 0.0
10/09:00am 23.6 21.9 4.0 28 9.6 WNW 2 6 1 3 1015.1 1015.0 0.0
10/08:30am 22.0 20.3 4.1 31 8.7 WSW 2 7 1 4 1015.2 1015.1 0.0
10/08:00am 20.2 18.2 6.2 40 7.0 NNE 6 7 3 4 1014.8 1014.7 0.0
10/07:30am 18.9 17.5 7.4 47 5.8 ENE 4 7 2 4 1014.7 1014.6 0.0
10/07:00am 18.0 16.1 6.8 48 5.6 E 6 7 3 4 1014.6 1014.5 0.0
10/06:30am 16.5 13.4 7.4 55 4.5 NE 13 13 7 7 1014.2 1014.1 0.0
10/06:00am 16.5 14.2 7.4 55 4.5 NE 9 13 5 7 1014.2 1014.1 0.0
10/05:30am 16.6 14.8 7.3 54 4.6 NNW 6 7 3 4 1014.0 1013.9 0.0
10/05:00am 17.4 15.6 7.2 51 5.1 NNE 6 7 3 4 1013.9 1013.8 0.0
10/04:30am 17.5 16.4 7.0 50 5.2 W 2 7 1 4 1014.0 1013.9 0.0
10/04:00am 18.9 16.9 7.0 46 6.0 SSW 7 9 4 5 1013.9 1013.8 0.0
10/03:30am 18.2 16.0 6.4 46 5.8 SSW 7 11 4 6 1013.8 1013.7 0.0
10/03:00am 18.1 15.8 5.7 44 6.0 WSW 7 9 4 5 1013.7 1013.6 0.0
10/02:30am 18.9 16.9 6.1 43 6.3 WNW 6 6 3 3 1013.9 1013.8 0.0
10/02:00am 19.5 18.3 4.8 38 7.1 CALM 0 7 0 4 1014.1 1014.0 0.0
10/01:30am 22.3 19.4 1.3 25 9.7 SSE 6 7 3 4 1014.4 1014.3 0.0
10/01:00am 23.0 19.9 0.2 22 10.4 SE 6 11 3 6 1014.7 1014.6 0.0
10/12:30am 23.6 19.6 0.7 22 10.6 SSE 11 17 6 9 1015.0 1014.9 0.0
10/12:00am 24.1 19.9 1.7 23 10.6 SE 13 17 7 9 1015.0 1014.9 0.0
 
Date/Time
CDT
Tmp

°C
App
Tmp
°C
Dew
Point
°C
Rel
Hum
%
Delta-T

°C
Wind Press
QNH
hPa
Press
MSL
hPa
Rain
since
9 am
mm
Dir
 
Spd
km/h
Gust
km/h
Spd
kts
Gust
kts
09/11:30pm 24.4 20.8 3.1 25 10.3 SE 11 17 6 9 1014.8 1014.7 0.0
09/11:00pm 25.0 21.5 3.6 25 10.5 SE 11 17 6 9 1015.0 1014.9 0.0
09/10:30pm 25.7 22.8 4.8 26 10.5 SE 9 11 5 6 1015.1 1015.0 0.0
09/10:00pm 26.3 23.0 4.7 25 10.9 SSE 11 15 6 8 1015.0 1014.9 0.0
09/09:30pm 26.9 23.3 5.2 25 11.1 SE 13 19 7 10 1014.8 1014.7 0.0
09/09:00pm 27.3 23.8 7.2 28 10.7 SE 15 20 8 11 1014.6 1014.5 0.0
09/08:30pm 28.0 25.0 10.7 34 9.8 ESE 17 22 9 12 1014.5 1014.4 0.0
09/08:00pm 30.4 28.4 11.4 31 11.0 ESE 13 20 7 11 1014.4 1014.3 0.0
09/07:30pm 32.1 30.7 13.3 31 11.3 SSW 13 19 7 10 1014.2 1014.1 0.0
09/07:00pm 32.4 29.4 12.1 29 12.0 SW 19 22 10 12 1014.2 1014.1 0.0
09/06:30pm 32.9 30.0 10.9 26 12.8 SSW 17 20 9 11 1014.1 1014.0 0.0
09/06:00pm 33.3 29.6 10.0 24 13.4 SSW 20 26 11 14 1014.2 1014.1 0.0
09/05:30pm 33.5 28.7 8.9 22 13.9 SSW 24 32 13 17 1014.3 1014.2 0.0
09/05:00pm 34.5 29.6 8.3 20 14.7 SSW 24 32 13 17 1014.4 1014.3 0.0
09/04:30pm 34.7 30.0 9.2 21 14.5 SSW 24 30 13 16 1014.7 1014.6 0.0

Latest Capital City Observations: Canberra | Sydney | Melbourne | Brisbane | Adelaide | Perth | Hobart | Darwin

Other Formats:

Comma delimited format used in spreadsheet applications
http://www.bom.gov.au/fwo/IDS60901/IDS60901.95676.axf

JavaScript Object Notation format (JSON) in row-major order
http://www.bom.gov.au/fwo/IDS60901/IDS60901.95676.json